createdAt,value
2017-11-22T00:01:07.349Z,10.87
2017-11-22T00:03:34.735Z,10.86
2017-11-22T00:06:02.148Z,10.84
2017-11-22T00:08:29.535Z,10.84
2017-11-22T00:10:56.923Z,10.83
2017-11-22T00:13:24.347Z,10.82
2017-11-22T00:15:51.730Z,10.87
2017-11-22T00:18:19.131Z,10.86
2017-11-22T00:20:46.519Z,10.91
2017-11-22T00:23:13.981Z,10.91
2017-11-22T00:25:41.371Z,10.93
2017-11-22T00:28:08.799Z,10.95
2017-11-22T00:30:36.203Z,10.91
2017-11-22T00:33:03.587Z,10.94
2017-11-22T00:35:31.004Z,10.92
2017-11-22T00:37:58.387Z,10.94
2017-11-22T00:40:25.780Z,10.95
2017-11-22T00:42:53.209Z,10.97
2017-11-22T00:45:20.595Z,11.01
2017-11-22T00:47:47.992Z,10.99
2017-11-22T00:50:15.387Z,11.05
2017-11-22T00:52:42.782Z,11.05
2017-11-22T00:55:10.170Z,11.07
2017-11-22T00:57:37.569Z,11.06
2017-11-22T01:00:04.966Z,11.13
2017-11-22T01:02:32.355Z,11.13
2017-11-22T01:04:59.755Z,11.13
2017-11-22T01:07:27.147Z,11.13
2017-11-22T01:09:54.553Z,11.12
2017-11-22T01:12:21.959Z,11.10
2017-11-22T01:14:49.343Z,11.11
2017-11-22T01:17:16.731Z,11.16
2017-11-22T01:19:44.152Z,11.16
2017-11-22T01:22:11.545Z,11.14
2017-11-22T01:24:38.931Z,11.15
2017-11-22T01:27:06.335Z,11.16
2017-11-22T01:29:33.737Z,11.17
2017-11-22T01:32:01.115Z,11.17
2017-11-22T01:34:28.522Z,11.17
2017-11-22T01:36:55.904Z,11.15
2017-11-22T01:39:23.300Z,11.16
2017-11-22T01:41:50.712Z,11.19
2017-11-22T01:44:18.108Z,11.19
2017-11-22T01:46:45.499Z,11.21
2017-11-22T01:49:13.555Z,11.19
2017-11-22T01:51:40.948Z,11.18
2017-11-22T01:54:08.367Z,11.17
2017-11-22T01:56:35.805Z,11.18
2017-11-22T01:59:03.202Z,11.15
2017-11-22T02:01:30.591Z,11.19
2017-11-22T02:03:57.995Z,11.17
2017-11-22T02:06:25.384Z,11.15
2017-11-22T02:08:52.775Z,11.17
2017-11-22T02:11:20.180Z,11.18
2017-11-22T02:13:47.571Z,11.18
2017-11-22T02:16:14.959Z,11.17
2017-11-22T02:18:42.373Z,11.17
2017-11-22T02:21:09.782Z,11.18
2017-11-22T02:23:37.148Z,11.19
2017-11-22T02:26:04.547Z,11.22
2017-11-22T02:28:31.950Z,11.21
2017-11-22T02:30:59.331Z,11.23
2017-11-22T02:33:26.737Z,11.22
2017-11-22T02:35:54.127Z,11.22
2017-11-22T02:38:21.521Z,11.18
2017-11-22T02:40:48.921Z,11.25
2017-11-22T02:43:16.325Z,11.25
2017-11-22T02:45:43.711Z,11.26
2017-11-22T02:48:11.135Z,11.29
2017-11-22T02:50:38.534Z,11.24
2017-11-22T02:53:05.916Z,11.27
2017-11-22T02:55:33.322Z,11.27
2017-11-22T02:58:00.712Z,11.26
2017-11-22T03:00:28.098Z,11.25
2017-11-22T03:02:55.519Z,11.22
2017-11-22T03:05:22.911Z,11.23
2017-11-22T03:07:50.309Z,11.26
2017-11-22T03:10:17.711Z,11.27
2017-11-22T03:12:45.095Z,11.25
2017-11-22T03:15:12.482Z,11.23
2017-11-22T03:17:39.883Z,11.28
2017-11-22T03:20:07.275Z,11.29
2017-11-22T03:22:34.668Z,11.31
2017-11-22T03:25:02.077Z,11.30
2017-11-22T03:27:29.470Z,11.29
2017-11-22T03:29:56.861Z,11.34
2017-11-22T03:32:24.279Z,11.33
2017-11-22T03:34:51.671Z,11.35
2017-11-22T03:37:19.062Z,11.37
2017-11-22T03:39:46.460Z,11.35
2017-11-22T03:42:13.863Z,11.36
2017-11-22T03:44:41.259Z,11.35
2017-11-22T03:47:08.664Z,11.31
2017-11-22T03:49:41.615Z,11.34
2017-11-22T03:52:14.545Z,11.31
2017-11-22T03:54:41.949Z,11.32
2017-11-22T03:57:09.344Z,11.32
2017-11-22T03:59:36.751Z,11.32
2017-11-22T04:02:06.075Z,11.31
2017-11-22T04:04:34.263Z,11.32
2017-11-22T04:07:01.677Z,11.33
2017-11-22T04:09:29.084Z,11.30
2017-11-22T04:11:58.423Z,11.33
2017-11-22T04:14:25.843Z,11.34
2017-11-22T04:16:53.235Z,11.34
2017-11-22T04:19:26.196Z,11.33
2017-11-22T04:21:53.592Z,11.34
2017-11-22T04:24:20.983Z,11.36
2017-11-22T04:26:48.395Z,11.35
2017-11-22T04:29:15.783Z,11.34
2017-11-22T04:31:43.171Z,11.34
2017-11-22T04:34:10.579Z,11.36
2017-11-22T04:36:37.967Z,11.34
2017-11-22T04:39:05.356Z,11.36
2017-11-22T04:41:32.781Z,11.36
2017-11-22T04:44:00.176Z,11.34
2017-11-22T04:46:27.558Z,11.34
2017-11-22T04:48:54.966Z,11.39
2017-11-22T04:51:22.347Z,11.41
2017-11-22T04:53:49.739Z,11.40
2017-11-22T04:56:17.143Z,11.36
2017-11-22T04:58:44.536Z,11.33
2017-11-22T05:01:11.929Z,11.32
2017-11-22T05:03:39.332Z,11.35
2017-11-22T05:06:06.723Z,11.34
2017-11-22T05:08:37.843Z,11.37
2017-11-22T05:11:05.253Z,11.36
2017-11-22T05:13:32.645Z,11.40
2017-11-22T05:16:00.036Z,11.40
2017-11-22T05:18:27.457Z,11.44
2017-11-22T05:20:54.853Z,11.41
2017-11-22T05:23:22.241Z,11.43
2017-11-22T05:25:49.648Z,11.40
2017-11-22T05:28:17.048Z,11.36
2017-11-22T05:30:44.439Z,11.36
2017-11-22T05:33:11.843Z,11.38
2017-11-22T05:35:44.933Z,11.36
2017-11-22T05:38:12.332Z,11.35
2017-11-22T05:40:39.732Z,11.36
2017-11-22T05:43:07.119Z,11.38
2017-11-22T05:45:34.542Z,11.33
2017-11-22T05:48:01.931Z,11.32
2017-11-22T05:50:29.324Z,11.33
2017-11-22T05:52:56.730Z,11.34
2017-11-22T05:55:24.147Z,11.34
2017-11-22T05:57:51.553Z,11.36
2017-11-22T06:00:18.979Z,11.34
2017-11-22T06:02:46.367Z,11.30
2017-11-22T06:05:13.763Z,11.31
2017-11-22T06:07:41.178Z,11.31
2017-11-22T06:10:08.559Z,11.33
2017-11-22T06:12:35.959Z,11.34
2017-11-22T06:15:03.364Z,11.37
2017-11-22T06:17:30.755Z,11.40
2017-11-22T06:19:58.160Z,11.41
2017-11-22T06:22:25.555Z,11.43
2017-11-22T06:24:52.952Z,11.46
2017-11-22T06:27:20.345Z,11.45
2017-11-22T06:29:49.695Z,11.44
2017-11-22T06:32:17.091Z,11.43
2017-11-22T06:34:44.476Z,11.45
2017-11-22T06:37:11.879Z,11.48
2017-11-22T06:39:39.280Z,11.51
2017-11-22T06:42:06.676Z,11.54
2017-11-22T06:44:34.091Z,11.49
2017-11-22T06:47:01.488Z,11.52
2017-11-22T06:49:28.879Z,11.55
2017-11-22T06:51:56.280Z,11.55
2017-11-22T06:54:23.675Z,11.55
2017-11-22T06:56:51.063Z,11.54
2017-11-22T06:59:18.473Z,11.53
2017-11-22T07:01:53.297Z,11.52
2017-11-22T07:04:20.702Z,11.55
2017-11-22T07:06:48.092Z,11.58
2017-11-22T07:09:15.791Z,11.62
2017-11-22T07:11:43.211Z,11.61
2017-11-22T07:14:10.604Z,11.63
2017-11-22T07:16:43.596Z,11.63
2017-11-22T07:19:10.991Z,11.63
2017-11-22T07:21:38.387Z,11.66
2017-11-22T07:24:05.790Z,11.64
2017-11-22T07:26:33.180Z,11.62
2017-11-22T07:29:00.575Z,11.66
2017-11-22T07:31:27.980Z,11.66
2017-11-22T07:33:55.372Z,11.66
2017-11-22T07:36:28.438Z,11.68
2017-11-22T07:38:55.845Z,11.71
2017-11-22T07:41:23.233Z,11.70
2017-11-22T07:43:50.627Z,11.69
2017-11-22T07:46:18.022Z,11.73
2017-11-22T07:48:45.415Z,11.76
2017-11-22T07:51:18.324Z,11.75
2017-11-22T07:53:45.712Z,11.73
2017-11-22T07:56:16.051Z,11.74
2017-11-22T07:58:43.467Z,11.75
2017-11-22T08:01:10.858Z,11.77
2017-11-22T08:03:43.756Z,11.77
2017-11-22T08:06:11.155Z,11.77
2017-11-22T08:08:39.205Z,11.75
2017-11-22T08:11:06.604Z,11.77
2017-11-22T08:13:34.019Z,11.80
2017-11-22T08:16:01.424Z,11.83
2017-11-22T08:18:28.858Z,11.84
2017-11-22T08:20:56.263Z,11.86
2017-11-22T08:23:23.984Z,11.87
2017-11-22T08:25:57.735Z,11.88
2017-11-22T08:28:25.119Z,11.92
2017-11-22T08:30:52.519Z,11.93
2017-11-22T08:33:19.935Z,11.95
2017-11-22T08:35:47.331Z,11.96
2017-11-22T08:38:14.725Z,12.00
2017-11-22T08:40:42.123Z,11.96
2017-11-22T08:43:15.132Z,12.00
2017-11-22T08:45:42.566Z,11.97
2017-11-22T08:48:09.964Z,12.00
2017-11-22T08:50:37.368Z,12.01
2017-11-22T08:53:04.784Z,12.08
2017-11-22T08:55:37.672Z,12.11
2017-11-22T08:58:10.581Z,12.16
2017-11-22T09:00:37.996Z,12.17
2017-11-22T09:03:05.398Z,12.21
2017-11-22T09:08:35.100Z,12.28
2017-11-22T09:11:02.550Z,12.41
2017-11-22T09:13:29.941Z,12.51
2017-11-22T09:15:57.383Z,12.56
2017-11-22T09:18:30.367Z,12.68
2017-11-22T09:20:57.760Z,12.82
2017-11-22T09:23:25.168Z,12.93
2017-11-22T09:25:52.640Z,13.04
2017-11-22T09:28:20.023Z,13.09
2017-11-22T09:30:53.040Z,13.09
2017-11-22T09:33:20.428Z,13.07
2017-11-22T09:35:47.831Z,13.14
2017-11-22T09:38:15.268Z,13.20
2017-11-22T09:40:42.647Z,13.35
2017-11-22T09:43:10.045Z,13.52
2017-11-22T09:45:37.451Z,13.68
2017-11-22T09:48:04.832Z,13.79
2017-11-22T09:50:32.246Z,13.87
2017-11-22T09:52:59.657Z,13.89
2017-11-22T09:55:27.043Z,13.91
2017-11-22T09:57:54.441Z,13.91
2017-11-22T10:00:21.862Z,13.84
2017-11-22T10:02:49.264Z,13.86
2017-11-22T10:05:16.666Z,13.87
2017-11-22T10:07:44.087Z,13.99
2017-11-22T10:10:11.487Z,13.98
2017-11-22T10:12:38.876Z,13.85
2017-11-22T10:15:06.292Z,13.85
2017-11-22T10:17:33.681Z,13.91
2017-11-22T10:20:03.963Z,14.03
2017-11-22T10:22:37.019Z,14.21
2017-11-22T10:25:10.330Z,14.32
2017-11-22T10:27:47.640Z,14.34
2017-11-22T10:30:15.065Z,14.25
2017-11-22T10:32:48.123Z,14.16
2017-11-22T10:35:15.549Z,14.07
2017-11-22T10:37:42.948Z,14.11
2017-11-22T10:40:10.377Z,14.12
2017-11-22T10:42:37.771Z,14.24
2017-11-22T10:45:05.160Z,14.33
2017-11-22T10:47:32.575Z,14.49
2017-11-22T10:49:59.967Z,14.63
2017-11-22T10:52:27.375Z,14.78
2017-11-22T10:54:54.810Z,14.80
2017-11-22T10:57:22.220Z,14.93
2017-11-22T10:59:49.608Z,14.88
2017-11-22T11:02:17.005Z,14.83
2017-11-22T11:04:44.398Z,14.93
2017-11-22T11:07:11.783Z,14.89
2017-11-22T11:09:39.234Z,14.88
2017-11-22T11:12:06.620Z,14.89
2017-11-22T11:14:34.017Z,14.90
2017-11-22T11:17:01.420Z,14.98
2017-11-22T11:19:28.811Z,15.06
2017-11-22T11:21:56.216Z,15.07
2017-11-22T11:24:23.653Z,15.19
2017-11-22T11:26:51.048Z,15.23
2017-11-22T11:29:18.449Z,15.42
2017-11-22T11:31:45.846Z,15.58
2017-11-22T11:34:13.241Z,15.55
2017-11-22T11:36:40.647Z,15.63
2017-11-22T11:39:08.058Z,15.65
2017-11-22T11:41:35.451Z,15.52
2017-11-22T11:44:02.851Z,15.52
2017-11-22T11:46:30.251Z,15.47
2017-11-22T11:48:57.647Z,15.62
2017-11-22T11:51:25.039Z,15.72
2017-11-22T11:53:52.443Z,15.75
2017-11-22T11:56:19.885Z,15.78
2017-11-22T11:58:47.272Z,15.82
2017-11-22T12:01:14.679Z,15.92
2017-11-22T12:03:42.070Z,15.89
2017-11-22T12:06:09.464Z,15.82
2017-11-22T12:08:36.875Z,15.86
2017-11-22T12:11:04.267Z,15.87
2017-11-22T12:13:31.655Z,15.79
2017-11-22T12:15:59.083Z,15.76
2017-11-22T12:18:26.467Z,15.71
2017-11-22T12:21:00.231Z,15.66
2017-11-22T12:23:27.632Z,15.66
2017-11-22T12:25:55.020Z,15.80
2017-11-22T12:28:22.433Z,15.92
2017-11-22T12:30:49.828Z,15.98
2017-11-22T12:33:17.252Z,16.18
2017-11-22T12:35:44.654Z,16.41
2017-11-22T12:38:12.051Z,16.53
2017-11-22T12:40:39.455Z,16.71
2017-11-22T12:43:06.864Z,16.83
2017-11-22T12:45:34.261Z,16.92
2017-11-22T12:48:01.651Z,17.00
2017-11-22T12:50:29.089Z,16.99
2017-11-22T12:52:56.492Z,17.01
2017-11-22T12:55:23.883Z,17.12
2017-11-22T12:57:54.260Z,16.94
2017-11-22T13:00:21.673Z,16.94
2017-11-22T13:02:49.055Z,17.05
2017-11-22T13:05:16.464Z,16.99
2017-11-22T13:07:43.863Z,17.08
2017-11-22T13:10:16.909Z,17.21
2017-11-22T13:12:44.307Z,17.30
2017-11-22T13:15:11.738Z,17.32
2017-11-22T13:17:42.062Z,17.24
2017-11-22T13:20:09.447Z,17.25
2017-11-22T13:22:36.860Z,17.20
2017-11-22T13:25:04.254Z,17.12
2017-11-22T13:27:31.663Z,17.13
2017-11-22T13:29:59.069Z,17.10
2017-11-22T13:32:26.507Z,17.02
2017-11-22T13:34:53.882Z,16.94
2017-11-22T13:37:21.295Z,16.75
2017-11-22T13:39:48.692Z,16.76
2017-11-22T13:42:16.092Z,16.82
2017-11-22T13:44:43.496Z,16.75
2017-11-22T13:47:10.926Z,16.78
2017-11-22T13:49:38.316Z,16.78
2017-11-22T13:52:05.712Z,16.76
2017-11-22T13:54:33.152Z,16.75
2017-11-22T13:57:00.564Z,16.50
2017-11-22T13:59:27.964Z,16.41
2017-11-22T14:01:55.367Z,16.38
2017-11-22T14:04:22.753Z,16.35
2017-11-22T14:06:50.140Z,16.26
2017-11-22T14:09:17.541Z,16.24
2017-11-22T14:11:44.945Z,16.22
2017-11-22T14:14:12.332Z,16.16
2017-11-22T14:16:39.727Z,16.21
2017-11-22T14:19:07.119Z,16.18
2017-11-22T14:21:34.527Z,16.09
2017-11-22T14:24:01.933Z,15.95
2017-11-22T14:26:29.326Z,15.84
2017-11-22T14:28:56.720Z,15.75
2017-11-22T14:31:24.122Z,15.71
2017-11-22T14:33:51.515Z,15.63
2017-11-22T14:36:18.904Z,15.49
2017-11-22T14:38:46.327Z,15.37
2017-11-22T14:41:13.716Z,15.24
2017-11-22T14:43:41.104Z,15.10
2017-11-22T14:46:08.507Z,15.01
2017-11-22T14:51:09.780Z,14.75
2017-11-22T14:53:37.176Z,14.68
2017-11-22T14:56:04.567Z,14.56
2017-11-22T14:58:31.977Z,14.41
2017-11-22T15:00:59.373Z,14.27
2017-11-22T15:03:26.763Z,14.21
2017-11-22T15:05:54.164Z,14.11
2017-11-22T15:08:21.550Z,14.05
2017-11-22T15:10:48.949Z,13.97
2017-11-22T15:13:16.354Z,13.88
2017-11-22T15:15:43.739Z,13.79
2017-11-22T15:18:11.140Z,13.71
2017-11-22T15:20:38.535Z,13.61
2017-11-22T15:23:05.931Z,13.50
2017-11-22T15:25:33.323Z,13.38
2017-11-22T15:28:00.728Z,13.27
2017-11-22T15:30:28.120Z,13.18
2017-11-22T15:32:55.527Z,13.05
2017-11-22T15:35:22.936Z,13.01
2017-11-22T15:37:50.339Z,12.86
2017-11-22T15:40:17.735Z,12.77
2017-11-22T15:42:45.184Z,12.70
2017-11-22T15:45:12.576Z,12.59
2017-11-22T15:47:39.968Z,12.51
2017-11-22T15:50:07.487Z,12.42
2017-11-22T15:52:34.876Z,12.36
2017-11-22T15:55:02.265Z,12.28
2017-11-22T15:57:29.680Z,12.25
2017-11-22T15:59:57.092Z,12.13
2017-11-22T16:02:24.480Z,12.13
2017-11-22T16:04:51.901Z,12.04
2017-11-22T16:07:19.301Z,11.94
2017-11-22T16:09:47.244Z,11.93
2017-11-22T16:12:15.460Z,11.91
2017-11-22T16:14:42.852Z,11.90
2017-11-22T16:17:10.264Z,11.83
2017-11-22T16:19:37.682Z,11.75
2017-11-22T16:22:05.076Z,11.67
2017-11-22T16:24:32.465Z,11.60
2017-11-22T16:26:59.863Z,11.58
2017-11-22T16:29:27.263Z,11.59
2017-11-22T16:31:54.651Z,11.60
2017-11-22T16:34:22.078Z,11.58
2017-11-22T16:36:49.475Z,11.60
2017-11-22T16:39:16.865Z,11.55
2017-11-22T16:41:44.261Z,11.47
2017-11-22T16:44:13.612Z,11.45
2017-11-22T16:46:41.003Z,11.36
2017-11-22T16:49:08.411Z,11.32
2017-11-22T16:51:35.803Z,11.32
2017-11-22T16:54:03.192Z,11.33
2017-11-22T16:56:30.594Z,11.34
2017-11-22T16:58:57.986Z,11.30
2017-11-22T17:01:25.387Z,11.27
2017-11-22T17:03:52.824Z,11.25
2017-11-22T17:06:20.243Z,11.20
2017-11-22T17:08:47.630Z,11.23
2017-11-22T17:11:15.048Z,11.19
2017-11-22T17:13:42.457Z,11.13
2017-11-22T17:16:09.851Z,11.07
2017-11-22T17:18:37.276Z,11.08
2017-11-22T17:21:04.668Z,11.03
2017-11-22T17:23:32.084Z,10.99
2017-11-22T17:25:59.509Z,11.05
2017-11-22T17:28:26.899Z,11.03
2017-11-22T17:30:54.291Z,11.00
2017-11-22T17:33:21.761Z,11.00
2017-11-22T17:35:49.149Z,11.00
2017-11-22T17:38:16.543Z,10.93
2017-11-22T17:40:44.457Z,10.92
2017-11-22T17:43:11.851Z,10.90
2017-11-22T17:45:39.281Z,10.89
2017-11-22T17:48:06.705Z,10.86
2017-11-22T17:50:34.087Z,10.85
2017-11-22T17:53:01.496Z,10.82
2017-11-22T17:55:28.896Z,10.79
2017-11-22T17:57:56.285Z,10.80
2017-11-22T18:00:23.680Z,10.80
2017-11-22T18:02:51.083Z,10.80
2017-11-22T18:05:18.488Z,10.81
2017-11-22T18:07:45.881Z,10.79
2017-11-22T18:10:13.321Z,10.75
2017-11-22T18:12:40.711Z,10.71
2017-11-22T18:15:08.099Z,10.71
2017-11-22T18:17:35.504Z,10.71
2017-11-22T18:20:02.908Z,10.71
2017-11-22T18:22:30.407Z,10.68
2017-11-22T18:24:57.820Z,10.65
2017-11-22T18:27:25.228Z,10.63
2017-11-22T18:29:52.671Z,10.66
2017-11-22T18:32:20.069Z,10.63
2017-11-22T18:34:48.399Z,10.61
2017-11-22T18:37:15.844Z,10.59
2017-11-22T18:39:43.277Z,10.61
2017-11-22T18:42:11.554Z,10.58
2017-11-22T18:44:38.962Z,10.59
2017-11-22T18:47:06.373Z,10.60
2017-11-22T18:49:33.759Z,10.62
2017-11-22T18:52:01.156Z,10.55
2017-11-22T18:54:28.556Z,10.52
2017-11-22T18:56:55.950Z,10.53
2017-11-22T18:59:23.336Z,10.55
2017-11-22T19:01:50.736Z,10.57
2017-11-22T19:04:18.147Z,10.60
2017-11-22T19:06:45.545Z,10.61
2017-11-22T19:09:12.972Z,10.64
2017-11-22T19:11:40.367Z,10.68
2017-11-22T19:14:07.755Z,10.62
2017-11-22T19:16:35.168Z,10.54
2017-11-22T19:19:02.565Z,10.48
2017-11-22T19:21:29.947Z,10.49
2017-11-22T19:23:57.350Z,10.54
2017-11-22T19:26:24.735Z,10.55
2017-11-22T19:28:52.127Z,10.55
2017-11-22T19:31:19.536Z,10.57
2017-11-22T19:33:58.764Z,10.61
2017-11-22T19:36:26.195Z,10.60
2017-11-22T19:38:53.586Z,10.63
2017-11-22T19:41:20.978Z,10.67
2017-11-22T19:43:48.390Z,10.66
2017-11-22T19:46:19.001Z,10.62
2017-11-22T19:48:46.395Z,10.66
2017-11-22T19:51:13.824Z,10.57
2017-11-22T19:53:41.227Z,10.53
2017-11-22T19:56:08.619Z,10.52
2017-11-22T19:58:36.023Z,10.46
2017-11-22T20:01:03.417Z,10.50
2017-11-22T20:03:30.828Z,10.51
2017-11-22T20:05:58.256Z,10.46
2017-11-22T20:08:32.284Z,10.41
2017-11-22T20:10:59.767Z,10.35
2017-11-22T20:13:30.156Z,10.34
2017-11-22T20:15:57.566Z,10.27
2017-11-22T20:18:24.955Z,10.26
2017-11-22T20:20:52.357Z,10.22
2017-11-22T20:23:19.786Z,10.21
2017-11-22T20:25:47.212Z,10.15
2017-11-22T20:28:14.604Z,10.14
2017-11-22T20:30:42.015Z,10.17
2017-11-22T20:33:09.442Z,10.12
2017-11-22T20:35:36.823Z,10.15
2017-11-22T20:38:04.229Z,10.10
2017-11-22T20:40:31.639Z,10.13
2017-11-22T20:42:59.031Z,10.18
2017-11-22T20:45:26.432Z,10.16
2017-11-22T20:47:53.856Z,10.12
2017-11-22T20:50:21.243Z,10.05
2017-11-22T20:52:48.651Z,10.03
2017-11-22T20:55:16.065Z,9.96
2017-11-22T20:57:43.467Z,9.92
2017-11-22T21:00:10.852Z,9.96
2017-11-22T21:02:38.283Z,9.92
2017-11-22T21:05:05.691Z,9.95
2017-11-22T21:07:33.080Z,9.93
2017-11-22T21:10:00.475Z,9.91
2017-11-22T21:12:27.877Z,9.87
2017-11-22T21:14:55.255Z,9.96
2017-11-22T21:17:22.674Z,9.99
2017-11-22T21:19:50.047Z,10.07
2017-11-22T21:22:17.443Z,10.02
2017-11-22T21:24:44.840Z,9.99
2017-11-22T21:27:12.231Z,9.90
2017-11-22T21:29:39.620Z,9.87
2017-11-22T21:32:07.020Z,9.81
2017-11-22T21:34:34.431Z,9.81
2017-11-22T21:37:01.819Z,9.84
2017-11-22T21:39:29.223Z,9.89
2017-11-22T21:41:56.611Z,9.87
2017-11-22T21:44:24.000Z,9.84
2017-11-22T21:46:51.402Z,9.85
2017-11-22T21:49:18.780Z,9.81
2017-11-22T21:51:46.170Z,9.75
2017-11-22T21:54:13.579Z,9.73
2017-11-22T21:56:40.991Z,9.72
2017-11-22T21:59:08.374Z,9.72
2017-11-22T22:01:35.780Z,9.73
2017-11-22T22:04:03.166Z,9.77
2017-11-22T22:06:30.545Z,9.80
2017-11-22T22:08:57.951Z,9.79
2017-11-22T22:11:25.343Z,9.70
2017-11-22T22:13:52.746Z,9.68
2017-11-22T22:16:20.171Z,9.58
2017-11-22T22:18:47.543Z,9.52
2017-11-22T22:21:14.927Z,9.52
2017-11-22T22:23:42.323Z,9.52
2017-11-22T22:26:09.711Z,9.51
2017-11-22T22:28:37.107Z,9.46
2017-11-22T22:31:04.543Z,9.43
2017-11-22T22:33:31.911Z,9.46
2017-11-22T22:35:59.294Z,9.49
2017-11-22T22:38:26.693Z,9.49
2017-11-22T22:40:54.330Z,9.51
2017-11-22T22:43:21.706Z,9.47
2017-11-22T22:45:49.114Z,9.49
2017-11-22T22:48:16.494Z,9.50
2017-11-22T22:50:43.883Z,9.54
2017-11-22T22:53:11.296Z,9.54
2017-11-22T22:55:38.686Z,9.52
2017-11-22T22:58:06.073Z,9.53
2017-11-22T23:00:33.470Z,9.61
2017-11-22T23:03:00.878Z,9.63
2017-11-22T23:05:28.258Z,9.58
2017-11-22T23:07:55.672Z,9.59
2017-11-22T23:10:23.079Z,9.64
2017-11-22T23:12:50.439Z,9.68
2017-11-22T23:15:17.836Z,9.70
2017-11-22T23:17:45.232Z,9.73
2017-11-22T23:20:12.627Z,9.65
2017-11-22T23:22:40.024Z,9.66
2017-11-22T23:25:07.408Z,9.82
2017-11-22T23:27:34.797Z,9.95
2017-11-22T23:30:02.200Z,9.94
2017-11-22T23:32:29.587Z,9.96
2017-11-22T23:34:56.983Z,9.90
2017-11-22T23:37:24.383Z,9.89
2017-11-22T23:39:51.771Z,9.82
2017-11-22T23:42:19.155Z,9.83
2017-11-22T23:44:46.551Z,9.82
2017-11-22T23:47:13.940Z,9.75
2017-11-22T23:49:41.337Z,9.72
2017-11-22T23:52:08.752Z,9.67
2017-11-22T23:54:36.145Z,9.65
2017-11-22T23:57:03.531Z,9.68
2017-11-22T23:59:30.943Z,9.70
